createdAt,value
2022-09-23T00:00:00.559Z,19.10
2022-09-23T00:07:03.394Z,18.00
2022-09-23T00:20:17.951Z,16.80
2022-09-23T00:27:12.218Z,17.50
2022-09-23T00:33:58.822Z,17.30
2022-09-23T00:40:48.592Z,17.90
2022-09-23T00:47:33.361Z,16.80
2022-09-23T00:54:24.986Z,18.10
2022-09-23T01:01:08.532Z,14.90
2022-09-23T01:08:01.071Z,16.70
2022-09-23T01:14:47.301Z,15.70
2022-09-23T02:16:51.773Z,12.70
2022-09-23T02:23:36.420Z,14.90
2022-09-23T02:30:18.068Z,14.80
2022-09-23T03:24:30.423Z,13.40
2022-09-23T03:31:16.032Z,15.10
2022-09-23T03:38:02.536Z,18.70
2022-09-23T03:44:45.787Z,17.10
2022-09-23T03:51:28.815Z,17.50
2022-09-23T03:58:18.030Z,16.80
2022-09-23T04:05:02.523Z,15.60
2022-09-23T04:11:49.654Z,16.00
2022-09-23T04:18:45.663Z,15.60
2022-09-23T04:33:02.096Z,16.30
2022-09-23T04:39:46.606Z,16.10
2022-09-23T04:46:29.519Z,16.60
2022-09-23T04:53:29.100Z,17.70
2022-09-23T05:00:21.275Z,18.30
2022-09-23T05:07:05.613Z,15.60
2022-09-23T05:13:55.333Z,14.90
2022-09-23T05:20:46.649Z,14.90
2022-09-23T05:34:47.045Z,19.00
2022-09-23T05:41:29.168Z,17.40
2022-09-23T05:48:21.709Z,16.10
2022-09-23T05:55:04.703Z,16.60
2022-09-23T06:01:56.493Z,19.50
2022-09-23T06:08:51.470Z,20.20
2022-09-23T06:15:34.734Z,18.50
2022-09-23T06:22:21.142Z,18.50
2022-09-23T06:29:08.031Z,18.00
2022-09-23T06:35:56.274Z,12.50
2022-09-23T07:44:28.184Z,8.10
2022-09-23T08:35:39.330Z,7.50
2022-09-23T08:56:17.833Z,6.90
2022-09-23T09:03:10.061Z,7.90
2022-09-23T09:38:45.827Z,6.50
2022-09-23T09:45:36.573Z,5.00
2022-09-23T09:52:34.134Z,3.20
2022-09-23T09:59:19.263Z,2.60
2022-09-23T10:31:08.075Z,3.30
2022-09-23T10:38:18.662Z,3.30
2022-09-23T10:45:15.795Z,2.30
2022-09-23T10:52:07.968Z,3.10
2022-09-23T10:59:05.920Z,5.30
2022-09-23T11:05:59.151Z,4.30
2022-09-23T11:34:03.586Z,2.90
2022-09-23T11:41:08.716Z,2.50
2022-09-23T12:10:30.932Z,2.40
2022-09-23T12:17:38.003Z,1.70
2022-09-23T12:31:56.201Z,3.00
2022-09-23T13:03:36.921Z,2.90
2022-09-23T13:10:58.549Z,3.30
2022-09-23T13:16:55.753Z,4.30
2022-09-23T13:36:12.219Z,3.20
2022-09-23T13:43:02.988Z,1.90
2022-09-23T14:22:24.758Z,3.40
2022-09-23T14:36:30.356Z,2.60
2022-09-23T14:43:15.106Z,2.50
2022-09-23T14:49:59.799Z,2.50
2022-09-23T14:56:49.721Z,2.30
2022-09-23T15:03:45.181Z,2.50
2022-09-23T15:10:28.691Z,2.30
2022-09-23T15:17:14.730Z,2.50
2022-09-23T15:23:57.862Z,3.00
2022-09-23T15:30:51.973Z,6.10
2022-09-23T15:37:51.691Z,4.70
2022-09-23T15:51:42.604Z,6.10
2022-09-23T15:58:44.778Z,6.30
2022-09-23T16:05:26.861Z,8.20
2022-09-23T16:12:10.416Z,12.10
2022-09-23T16:19:07.688Z,10.50
2022-09-23T16:25:52.924Z,42.00
2022-09-23T16:32:41.564Z,20.00
2022-09-23T16:39:26.688Z,47.40
2022-09-23T16:46:12.433Z,38.40
2022-09-23T16:53:05.829Z,34.60
2022-09-23T16:59:52.446Z,30.60
2022-09-23T17:06:56.418Z,13.80
2022-09-23T17:13:19.955Z,19.50
2022-09-23T17:19:45.581Z,14.70
2022-09-23T17:26:09.190Z,14.10
2022-09-23T17:32:52.807Z,12.90
2022-09-23T17:39:39.469Z,15.40
2022-09-23T17:46:34.043Z,15.10
2022-09-23T17:53:34.009Z,24.50
2022-09-23T18:00:18.377Z,17.10
2022-09-23T18:07:09.185Z,15.60
2022-09-23T18:13:32.155Z,19.10
2022-09-23T18:19:56.071Z,24.20
2022-09-23T18:26:53.314Z,24.90
2022-09-23T18:33:35.866Z,29.40
2022-09-23T18:40:19.201Z,29.20
2022-09-23T18:47:02.807Z,36.80
2022-09-23T18:53:45.927Z,35.10
2022-09-23T19:00:29.122Z,28.30
2022-09-23T19:07:12.291Z,33.50
2022-09-23T19:13:55.048Z,40.20
2022-09-23T19:25:36.725Z,37.20
2022-09-23T19:38:31.783Z,39.40
2022-09-23T19:44:19.330Z,47.40
2022-09-23T19:50:01.487Z,45.10
2022-09-23T19:55:26.413Z,80.30
2022-09-23T20:01:29.471Z,57.90
2022-09-23T20:07:13.099Z,102.40
2022-09-23T20:13:15.487Z,49.70
2022-09-23T20:18:42.408Z,23.50
2022-09-23T20:24:05.892Z,33.60
2022-09-23T20:29:27.780Z,37.40
2022-09-23T20:34:51.080Z,35.00
2022-09-23T20:40:16.274Z,38.20
2022-09-23T20:45:38.437Z,41.90
2022-09-23T20:52:11.742Z,41.40
2022-09-23T20:58:57.791Z,42.00
2022-09-23T21:05:39.142Z,41.80
2022-09-23T21:12:27.716Z,50.00
2022-09-23T21:19:13.057Z,49.90
2022-09-23T21:26:00.063Z,49.30
2022-09-23T21:32:46.281Z,52.90
2022-09-23T21:39:38.621Z,44.50
2022-09-23T21:46:17.732Z,45.40
2022-09-23T22:00:39.583Z,44.90
2022-09-23T22:14:54.626Z,46.10
2022-09-23T22:21:48.003Z,49.10
2022-09-23T22:28:37.278Z,47.60
2022-09-23T22:35:04.955Z,41.90
2022-09-23T22:41:47.765Z,44.20
2022-09-23T23:03:01.602Z,50.20
2022-09-23T23:09:47.171Z,48.20
2022-09-23T23:23:42.886Z,47.60
2022-09-23T23:30:26.307Z,51.30
2022-09-23T23:37:07.933Z,49.80
2022-09-23T23:44:24.375Z,48.00
2022-09-23T23:51:09.032Z,45.40
